Time;durP1;ratioP1;P1;durP2;ratioP2;P2;SDS_P1;SDS_P2;PMS_P1;PMS_P2;Temp;Humidity;BMP_temperature;BMP_pressure;BME280_temperature;BME280_humidity;BME280_pressure;Samples;Min_cycle;Max_cycle;Signal;HPM_P1;HPM_P2
2022/02/02 00:02:04;;;;;;;32.25;4.68;;;;;;;-142.75;100.00;77792.91;5008757;28;20032;-67
2022/02/02 00:04:32;;;;;;;34.08;5.55;;;;;;;-142.75;100.00;77800.78;5008651;28;20057;-67
2022/02/02 00:07:09;;;;;;;27.00;5.13;;;;;;;-142.75;100.00;77804.72;5008705;28;20022;-68
2022/02/02 00:09:35;;;;;;;38.92;5.25;;;;;;;-142.75;100.00;77806.69;4989424;28;20049;-67
2022/02/02 00:12:13;;;;;;;34.15;4.93;;;;;;;-142.75;100.00;77806.69;5007670;28;20028;-67
2022/02/02 00:15:04;;;;;;;24.15;4.47;;;;;;;-142.75;100.00;77804.72;5008542;28;20113;-67
2022/02/02 00:17:44;;;;;;;33.20;5.22;;;;;;;-142.75;100.00;77804.72;4990943;28;20427;-68
2022/02/02 00:20:22;;;;;;;32.65;7.13;;;;;;;-142.75;100.00;77812.59;5008319;28;20018;-67
2022/02/02 00:22:50;;;;;;;33.45;4.97;;;;;;;-142.75;100.00;77818.50;5008739;28;20030;-67
2022/02/02 00:25:21;;;;;;;34.33;4.93;;;;;;;-142.75;100.00;77812.59;5008596;28;20025;-68
2022/02/02 00:27:51;;;;;;;22.17;5.40;;;;;;;-142.75;100.00;77822.44;5008276;28;20032;-67
2022/02/02 00:30:19;;;;;;;21.70;4.07;;;;;;;-142.75;100.00;77830.31;4990569;28;20026;-67
2022/02/02 00:35:27;;;;;;;31.15;4.57;;;;;;;-142.75;100.00;77828.34;5008384;28;20389;-67
2022/02/02 00:37:52;;;;;;;33.65;4.45;;;;;;;-142.75;100.00;77830.31;5008000;28;20029;-67
2022/02/02 00:40:18;;;;;;;33.43;5.10;;;;;;;-142.75;100.00;77814.56;5009066;28;20479;-67
2022/02/02 00:42:48;;;;;;;33.40;5.07;;;;;;;-142.75;100.00;77826.38;5008271;28;20272;-68
2022/02/02 00:45:14;;;;;;;32.20;4.95;;;;;;;-142.75;100.00;77828.34;5008264;28;20269;-67
2022/02/02 00:47:40;;;;;;;27.45;4.78;;;;;;;-142.75;100.00;77834.25;5008239;28;20502;-68
2022/02/02 00:50:07;;;;;;;30.20;4.57;;;;;;;-142.75;100.00;77834.25;5007883;28;20022;-68
2022/02/02 00:52:33;;;;;;;34.33;5.07;;;;;;;-142.75;100.00;77842.13;5008414;28;20013;-68
2022/02/02 00:54:58;;;;;;;32.58;5.43;;;;;;;-142.75;100.00;77848.03;4990716;28;20033;-68
2022/02/02 00:57:27;;;;;;;31.45;4.45;;;;;;;-142.75;100.00;77857.88;5008095;28;20522;-68
2022/02/02 00:59:53;;;;;;;17.95;3.53;;;;;;;-142.75;100.00;77853.94;4988317;28;20030;-68
2022/02/02 01:02:18;;;;;;;26.05;4.95;;;;;;;-142.75;100.00;77855.91;4988631;28;20389;-68
2022/02/02 01:04:44;;;;;;;38.27;4.80;;;;;;;-142.75;100.00;77842.13;4988105;28;20038;-68
2022/02/02 01:07:20;;;;;;;30.13;4.73;;;;;;;-142.75;100.00;77846.06;5008111;28;20276;-68
2022/02/02 01:10:01;;;;;;;27.65;4.25;;;;;;;-142.75;100.00;77855.91;5008372;28;20072;-68
2022/02/02 01:15:59;;;;;;;30.43;4.20;;;;;;;-142.75;100.00;77848.03;5008033;28;20033;-68
2022/02/02 01:28:23;;;;;;;33.30;5.07;;;;;;;-142.75;100.00;77857.88;5011714;28;20041;-68
2022/02/02 01:30:49;;;;;;;30.80;4.37;;;;;;;-142.75;100.00;77855.91;5011380;28;20381;-67
2022/02/02 01:33:14;;;;;;;30.20;4.40;;;;;;;-142.75;100.00;77861.81;5011324;28;20029;-68
2022/02/02 01:35:39;;;;;;;37.10;5.05;;;;;;;-142.75;100.00;77861.81;5011382;28;20033;-67
2022/02/02 01:38:05;;;;;;;30.58;4.82;;;;;;;-142.75;100.00;77867.72;5011034;28;20055;-68
2022/02/02 01:40:35;;;;;;;33.95;4.70;;;;;;;-142.75;100.00;77871.66;5011968;28;20018;-68
2022/02/02 01:43:08;;;;;;;40.60;5.57;;;;;;;-142.75;100.00;77885.44;5011045;28;20021;-68
2022/02/02 01:45:41;;;;;;;37.70;4.80;;;;;;;-142.75;100.00;77897.25;5011190;28;20119;-68
2022/02/02 01:55:42;;;;;;;35.50;5.15;;;;;;;-142.75;100.00;77920.91;5011080;28;20034;-68
2022/02/02 02:00:40;;;;;;;31.13;4.85;;;;;;;-142.75;100.00;77924.84;5011159;28;20030;-68
2022/02/02 02:03:05;;;;;;;33.43;5.07;;;;;;;-142.75;100.00;77924.84;4993291;28;20149;-68
2022/02/02 02:05:31;;;;;;;42.60;5.77;;;;;;;-142.75;100.00;77920.91;5010829;28;20280;-68
2022/02/02 02:07:56;;;;;;;36.05;5.45;;;;;;;-142.75;100.00;77928.78;5010296;28;20026;-69
2022/02/02 02:10:23;;;;;;;26.20;4.72;;;;;;;-142.75;100.00;77916.97;5011305;28;20021;-68
2022/02/02 02:12:57;;;;;;;33.50;5.70;;;;;;;-142.75;100.00;77922.88;4993078;28;20032;-68
2022/02/02 02:15:27;;;;;;;31.10;4.90;;;;;;;-142.75;100.00;77928.78;5010776;28;20029;-68
2022/02/02 02:17:53;;;;;;;35.85;5.60;;;;;;;-142.75;100.00;77928.78;5010386;28;20026;-68
2022/02/02 02:20:18;;;;;;;29.73;4.90;;;;;;;-142.75;100.00;77922.88;4993202;28;20080;-68
2022/02/02 02:22:44;;;;;;;30.88;5.22;;;;;;;-142.75;100.00;77915.00;5009352;28;20026;-67
2022/02/02 02:25:18;;;;;;;39.60;6.35;;;;;;;-142.75;100.00;77916.97;5010637;28;20443;-68
2022/02/02 02:27:44;;;;;;;36.57;6.27;;;;;;;-142.75;100.00;77903.16;5010464;28;20117;-67
2022/02/02 02:30:22;;;;;;;40.92;5.30;;;;;;;-142.75;100.00;77897.25;5010105;28;20501;-68
2022/02/02 02:57:03;;;;;;;33.13;4.47;;;;;;;-142.75;100.00;77887.41;5009908;28;20101;-68
2022/02/02 02:59:42;;;;;;;29.15;4.30;;;;;;;-142.75;100.00;77875.59;5009604;28;20030;-67
2022/02/02 03:30:15;;;;;;;29.73;5.60;;;;;;;-142.75;100.00;77875.59;5007866;28;20131;-67
2022/02/02 03:35:08;;;;;;;38.45;5.53;;;;;;;-142.75;100.00;77885.44;5009261;28;20045;-67
2022/02/02 03:51:30;;;;;;;28.77;4.60;;;;;;;-142.75;100.00;77885.44;5008971;28;20045;-67
2022/02/02 03:59:31;;;;;;;37.20;5.27;;;;;;;-142.75;100.00;77885.44;5008808;28;20067;-67
2022/02/02 04:09:25;;;;;;;35.13;5.23;;;;;;;-142.75;100.00;77893.31;5009016;28;20061;-67
2022/02/02 04:12:13;;;;;;;33.23;5.50;;;;;;;-142.75;100.00;77901.19;5008941;28;20022;-67
2022/02/02 04:51:30;;;;;;;40.53;5.13;;;;;;;-142.75;100.00;77907.09;5039103;22;20323;-67
2022/02/02 04:58:08;;;;;;;35.80;4.77;;;;;;;-142.75;100.00;77924.84;5048197;28;20500;-66
2022/02/02 05:06:12;;;;;;;40.85;6.13;;;;;;;-142.75;100.00;77940.59;5009615;28;20116;-65
2022/02/02 05:08:54;;;;;;;23.90;4.63;;;;;;;-142.75;100.00;77936.66;5021328;28;20033;-66
2022/02/02 05:51:23;;;;;;;32.67;5.15;;;;;;;-142.75;100.00;77976.03;5050660;28;20780;-66
2022/02/02 05:53:49;;;;;;;27.77;5.23;;;;;;;-142.75;100.00;77987.84;5050876;28;20056;-67
2022/02/02 05:56:15;;;;;;;;;;;;;;;-142.75;100.00;77987.84;5045889;28;20049;-66
2022/02/02 05:58:44;;;;;;;30.37;4.80;;;;;;;-142.75;100.00;77989.81;5050344;28;20398;-66
2022/02/02 06:01:11;;;;;;;30.73;5.57;;;;;;;-142.75;100.00;77985.88;5050408;28;20017;-66
2022/02/02 06:03:45;;;;;;;40.50;5.10;;;;;;;-142.75;100.00;77987.84;5050358;28;20045;-66
2022/02/02 06:06:11;;;;;;;34.00;5.83;;;;;;;-142.75;100.00;77983.91;5049226;28;20025;-66
2022/02/02 06:08:41;;;;;;;30.67;5.63;;;;;;;-142.75;100.00;77987.84;5050074;28;20047;-67
2022/02/02 06:11:10;;;;;;;28.70;4.23;;;;;;;-142.75;100.00;77983.91;5049850;28;20029;-66
2022/02/02 06:13:42;;;;;;;30.60;4.60;;;;;;;-142.75;100.00;77983.91;5050205;28;20029;-65
2022/02/02 06:16:08;;;;;;;34.30;4.97;;;;;;;-142.75;100.00;77995.72;5048819;28;20025;-66
2022/02/02 06:18:34;;;;;;;;;;;;;;;-142.75;100.00;77993.75;5049057;28;20082;-66
2022/02/02 06:21:01;;;;;;;37.22;4.45;;;;;;;-142.75;100.00;78001.63;5049850;28;19916;-67
2022/02/02 06:23:30;;;;;;;32.90;4.33;;;;;;;-142.75;100.00;78005.56;5050271;28;20441;-66
2022/02/02 06:25:59;;;;;;;32.83;5.30;;;;;;;-142.75;100.00;78013.44;5050236;28;20033;-66
2022/02/02 06:28:25;;;;;;;29.57;4.97;;;;;;;-142.75;100.00;77997.69;5048427;28;20021;-65
2022/02/02 06:30:58;;;;;;;34.97;4.75;;;;;;;-142.75;100.00;78017.38;5049871;28;20071;-67
2022/02/02 06:33:30;;;;;;;34.87;4.83;;;;;;;-142.75;100.00;78011.47;5050007;28;20143;-66
2022/02/02 06:35:56;;;;;;;36.87;4.40;;;;;;;-142.75;100.00;78009.50;5049921;28;20102;-67
2022/02/02 06:38:22;;;;;;;;;;;;;;;-142.75;100.00;78013.44;5048581;28;20075;-66
2022/02/02 06:40:50;;;;;;;30.73;4.57;;;;;;;-142.75;100.00;78027.22;5050441;28;19912;-65
2022/02/02 06:43:16;;;;;;;32.73;5.50;;;;;;;-142.75;100.00;78041.00;5048735;28;20025;-66
2022/02/02 06:45:41;;;;;;;28.25;4.85;;;;;;;-142.75;100.00;78037.06;5049683;28;20036;-67
2022/02/02 06:48:07;;;;;;;36.38;5.18;;;;;;;-142.75;100.00;78054.81;5048364;28;20020;-66
2022/02/02 06:50:36;;;;;;;36.42;5.47;;;;;;;-142.75;100.00;78044.94;5049921;28;21008;-66
2022/02/02 06:53:30;;;;;;;27.73;4.37;;;;;;;-142.75;100.00;78052.81;5031216;28;20410;-67
2022/02/02 06:59:12;;;;;;;32.87;4.37;;;;;;;-142.75;100.00;78050.84;5029541;28;20033;-67
2022/02/02 07:07:22;;;;;;;33.60;4.63;;;;;;;-142.75;100.00;78066.63;5048919;28;20021;-67
2022/02/02 07:12:46;;;;;;;30.73;4.67;;;;;;;-142.75;100.00;78080.41;5049157;28;20029;-67
2022/02/02 07:15:25;;;;;;;25.47;5.23;;;;;;;-142.75;100.00;78080.41;5049075;28;20047;-65
2022/02/02 07:20:59;;;;;;;31.53;5.37;;;;;;;-142.75;100.00;78070.56;5039432;28;20024;-66
2022/02/02 07:33:50;;;;;;;29.23;4.00;;;;;;;-142.75;100.00;78066.63;5048491;28;20041;-66
2022/02/02 07:36:28;;;;;;;27.33;4.33;;;;;;;-142.75;100.00;78068.59;5046628;28;20025;-67
2022/02/02 07:39:01;;;;;;;34.13;5.03;;;;;;;-142.75;100.00;78074.50;5048121;28;20431;-67
2022/02/02 07:41:36;;;;;;;19.37;3.00;;;;;;;-142.75;100.00;78068.59;5049346;28;20025;-67
2022/02/02 07:44:16;;;;;;;22.87;4.27;;;;;;;-142.75;100.00;78070.56;5048275;28;20070;-67
2022/02/02 07:46:47;;;;;;;20.97;3.40;;;;;;;-142.75;100.00;78064.66;5048233;28;20029;-68
2022/02/02 07:49:16;;;;;;;25.87;3.83;;;;;;;-142.75;100.00;78070.56;5027911;28;20036;-68
2022/02/02 07:51:45;;;;;;;14.27;2.77;;;;;;;-142.75;100.00;78058.72;5028491;28;20041;-66
2022/02/02 07:54:20;;;;;;;23.25;3.35;;;;;;;-142.75;100.00;78062.69;5028795;28;20151;-67
2022/02/02 07:56:46;;;;;;;19.80;3.33;;;;;;;-142.75;100.00;78058.72;5027522;28;20022;-67
2022/02/02 08:01:44;;;;;;;24.97;3.73;;;;;;;-142.75;100.00;78060.72;5029065;28;20041;-67
2022/02/02 08:04:10;;;;;;;20.00;2.60;;;;;;;-142.75;100.00;78050.84;5047833;28;20016;-67
2022/02/02 08:06:38;;;;;;;18.67;3.88;;;;;;;-142.75;100.00;78050.84;5046749;28;20029;-68
2022/02/02 08:09:04;;;;;;;22.30;2.73;;;;;;;-142.75;100.00;78052.81;5047719;28;20028;-66
2022/02/02 08:11:33;;;;;;;12.65;2.70;;;;;;;-142.75;100.00;78052.81;5048766;28;20027;-65
2022/02/02 08:14:00;;;;;;;21.05;3.03;;;;;;;-142.75;100.00;78056.78;5047997;28;20482;-68
2022/02/02 08:16:26;;;;;;;19.57;3.13;;;;;;;-142.75;100.00;78050.84;5046559;28;20028;-68
2022/02/02 08:18:54;;;;;;;15.65;2.58;;;;;;;-142.75;100.00;78058.72;5026781;28;20025;-67
2022/02/02 08:21:19;;;;;;;21.02;3.58;;;;;;;-142.75;100.00;78046.91;5028405;28;20060;-68
2022/02/02 08:23:46;;;;;;;19.35;3.22;;;;;;;-142.75;100.00;78052.81;5028577;28;20448;-68
2022/02/02 08:26:14;;;;;;;18.98;3.35;;;;;;;-142.75;100.00;78044.94;5027132;28;20022;-68
2022/02/02 08:28:41;;;;;;;14.97;2.63;;;;;;;-142.75;100.00;78042.97;5028025;28;20100;-67
2022/02/02 08:31:06;;;;;;;15.65;3.33;;;;;;;-142.75;100.00;78044.94;5028045;28;20030;-67
2022/02/02 08:33:37;;;;;;;19.73;3.63;;;;;;;-142.75;100.00;78046.91;5024991;28;20160;-66
2022/02/02 08:36:04;;;;;;;23.10;3.53;;;;;;;-142.75;100.00;78044.94;5025771;28;20033;-68
2022/02/02 08:38:42;;;;;;;20.60;3.20;;;;;;;-142.75;100.00;78066.63;5026943;28;20076;-68
2022/02/02 08:41:12;;;;;;;24.15;3.83;;;;;;;-142.75;100.00;78074.50;5042839;28;20031;-67
2022/02/02 08:46:09;;;;;;;21.95;3.22;;;;;;;-142.75;100.00;78054.81;5047109;28;20086;-68
2022/02/02 08:48:36;;;;;;;20.47;3.30;;;;;;;-142.75;100.00;78052.81;5044395;28;20041;-68
2022/02/02 08:51:06;;;;;;;14.67;3.43;;;;;;;-142.75;100.00;78048.88;5044948;28;20020;-66
2022/02/02 08:53:46;;;;;;;19.37;3.40;;;;;;;-142.75;100.00;78042.97;5025938;28;20025;-67
2022/02/02 08:58:49;;;;;;;15.87;3.20;;;;;;;-142.75;100.00;78058.72;5026760;28;20037;-67
2022/02/02 09:01:22;;;;;;;21.30;3.33;;;;;;;-142.75;100.00;78058.72;5027168;28;20029;-67
2022/02/02 09:06:31;;;;;;;21.57;3.20;;;;;;;-142.75;100.00;78042.97;5027442;28;20067;-66
2022/02/02 09:09:11;;;;;;;18.95;4.18;;;;;;;-142.75;100.00;78052.81;5026672;28;20038;-67
2022/02/02 09:23:26;;;;;;;19.60;2.78;;;;;;;-142.75;100.00;78033.13;5027045;28;20037;-68
2022/02/02 09:33:52;;;;;;;11.15;3.05;;;;;;;-142.75;100.00;78013.44;5046265;28;20040;-67
2022/02/02 09:36:26;;;;;;;10.80;2.25;;;;;;;-142.75;100.00;78011.47;5046222;28;20036;-67
2022/02/02 09:38:56;;;;;;;16.83;3.50;;;;;;;-142.75;100.00;78017.38;5044964;28;20021;-67
2022/02/02 09:41:37;;;;;;;16.83;2.83;;;;;;;-142.75;100.00;78023.28;5045293;28;20044;-68
2022/02/02 09:44:06;;;;;;;11.10;2.90;;;;;;;-142.75;100.00;78013.44;5046209;28;20492;-68
2022/02/02 09:46:51;;;;;;;16.20;2.97;;;;;;;-142.75;100.00;78023.28;5049144;28;20070;-66
2022/02/02 09:52:18;;;;;;;15.98;2.88;;;;;;;-142.75;100.00;77997.69;5005304;28;20095;-67
2022/02/02 09:55:07;;;;;;;11.90;2.92;;;;;;;-142.75;100.00;77999.66;5049734;28;20025;-68
2022/02/02 10:00:21;;;;;;;15.85;2.90;;;;;;;-142.75;100.00;78001.63;5029703;28;20040;-67
2022/02/02 10:03:02;;;;;;;23.80;3.60;;;;;;;-142.75;100.00;77987.84;5029362;28;20021;-68
2022/02/02 10:05:54;;;;;;;17.13;3.95;;;;;;;-142.75;100.00;77987.84;5046571;28;20025;-67
2022/02/02 10:11:24;;;;;;;12.88;2.20;;;;;;;-142.75;100.00;77997.69;5050112;28;20090;-68
2022/02/02 10:14:13;;;;;;;13.65;2.58;;;;;;;-142.75;100.00;77987.84;5048367;28;20106;-67
2022/02/02 10:16:48;;;;;;;13.88;2.63;;;;;;;-142.75;100.00;77985.88;5047720;28;20035;-68
2022/02/02 10:19:22;;;;;;;11.05;2.30;;;;;;;-142.75;100.00;77987.84;5032667;28;20029;-68
2022/02/02 10:21:49;;;;;;;15.65;3.00;;;;;;;-142.75;100.00;77997.69;5049267;28;20056;-68
2022/02/02 10:24:15;;;;;;;15.38;2.88;;;;;;;-142.75;100.00;77995.72;5049261;28;20033;-67
2022/02/02 10:26:47;;;;;;;12.95;2.15;;;;;;;-142.75;100.00;77997.69;5049456;28;20039;-67
2022/02/02 10:29:16;;;;;;;20.48;3.05;;;;;;;-142.75;100.00;78007.53;5047746;28;20032;-66
2022/02/02 10:31:48;;;;;;;13.82;2.60;;;;;;;-142.75;100.00;78007.53;5048944;28;20104;-67
2022/02/02 10:34:16;;;;;;;11.82;2.83;;;;;;;-142.75;100.00;78019.34;5042732;28;20050;-68
2022/02/02 10:36:42;;;;;;;14.45;2.90;;;;;;;-142.75;100.00;77991.78;5029867;28;20342;-68
2022/02/02 10:39:20;;;;;;;12.38;2.63;;;;;;;-142.75;100.00;77983.91;5029004;28;20116;-67
2022/02/02 10:41:53;;;;;;;15.70;2.85;;;;;;;-142.75;100.00;77987.84;5027474;28;20029;-67
2022/02/02 10:44:31;;;;;;;16.45;2.80;;;;;;;-142.75;100.00;77995.72;5028849;28;20056;-67
2022/02/02 10:47:16;;;;;;;14.25;2.72;;;;;;;-142.75;100.00;77987.84;5028692;28;20032;-67
2022/02/02 10:50:00;;;;;;;16.08;3.28;;;;;;;-142.75;100.00;78003.59;5039001;28;20029;-68
2022/02/02 10:58:09;;;;;;;11.32;2.70;;;;;;;-142.75;100.00;77995.72;5028733;28;20037;-66
2022/02/02 11:08:46;;;;;;;13.35;3.40;;;;;;;-142.75;100.00;77909.06;5027178;28;20064;-68
2022/02/02 11:11:11;;;;;;;12.43;2.97;;;;;;;-142.75;100.00;77907.09;5027735;28;20029;-67
2022/02/02 11:13:37;;;;;;;16.83;2.90;;;;;;;-142.75;100.00;77897.25;5029332;28;20036;-67
2022/02/02 11:16:06;;;;;;;16.00;2.50;;;;;;;-142.75;100.00;77889.38;5028261;28;20044;-68
2022/02/02 11:18:40;;;;;;;17.77;3.08;;;;;;;-142.75;100.00;77889.38;5030106;28;20418;-66
2022/02/02 11:21:21;;;;;;;17.73;3.22;;;;;;;-142.75;100.00;77885.44;5029156;28;20025;-67
2022/02/02 11:23:50;;;;;;;10.57;2.45;;;;;;;-142.75;100.00;77915.00;5030367;28;20026;-66
2022/02/02 11:26:48;;;;;;;17.02;3.53;;;;;;;-142.75;100.00;77909.06;5030072;28;20518;-67
2022/02/02 11:29:40;;;;;;;19.48;3.65;;;;;;;-142.75;100.00;77895.28;5028292;28;20037;-67
2022/02/02 11:32:09;;;;;;;10.98;2.42;;;;;;;-142.75;100.00;77887.41;5029694;28;20034;-67
2022/02/02 11:34:35;;;;;;;16.45;2.50;;;;;;;-142.75;100.00;77869.69;5030210;28;20021;-67
2022/02/02 11:37:03;;;;;;;17.63;3.75;;;;;;;-142.75;100.00;77865.75;5029967;28;20052;-68
2022/02/02 11:39:58;;;;;;;14.30;2.65;;;;;;;-142.75;100.00;77877.56;5029540;28;20415;-67
2022/02/02 11:42:48;;;;;;;18.38;2.83;;;;;;;-142.75;100.00;77905.13;5040497;28;20028;-67
2022/02/02 11:45:44;;;;;;;12.10;2.45;;;;;;;-142.75;100.00;77916.97;5049489;28;20025;-67
2022/02/02 11:48:18;;;;;;;11.82;2.42;;;;;;;-142.75;100.00;77920.91;5049473;28;20037;-67
2022/02/02 11:50:48;;;;;;;12.15;2.58;;;;;;;-142.75;100.00;77936.66;5049217;28;20025;-68
2022/02/02 11:53:48;;;;;;;19.50;3.03;;;;;;;-142.75;100.00;77944.53;5049406;28;20052;-67
2022/02/02 11:56:14;;;;;;;11.77;2.40;;;;;;;-142.75;100.00;77938.63;5049525;28;20029;-68
2022/02/02 11:58:39;;;;;;;10.38;2.60;;;;;;;-142.75;100.00;77944.53;5047867;28;20499;-67
2022/02/02 12:01:20;;;;;;;12.68;3.10;;;;;;;-142.75;100.00;77932.72;5048238;28;20052;-67
2022/02/02 12:09:19;;;;;;;11.70;2.95;;;;;;;-142.75;100.00;77891.34;5048513;28;20490;-67
2022/02/02 12:20:36;;;;;;;13.30;2.78;;;;;;;-142.75;100.00;77846.06;5028281;28;20422;-67
2022/02/02 12:45:09;;;;;;;9.95;2.13;;;;;;;-142.75;100.00;77800.78;5026323;28;20052;-67
2022/02/02 12:58:06;;;;;;;13.25;2.40;;;;;;;-142.75;100.00;77834.25;5006689;28;20042;-66
2022/02/02 13:03:00;;;;;;;13.07;2.35;;;;;;;-142.75;100.00;77844.09;5043465;28;20038;-67
2022/02/02 13:05:25;;;;;;;15.13;2.67;;;;;;;-142.75;100.00;77848.03;5029111;28;20032;-67
2022/02/02 13:07:56;;;;;;;13.88;2.40;;;;;;;-142.75;100.00;77842.13;5048730;28;20124;-66
2022/02/02 13:10:29;;;;;;;12.43;3.42;;;;;;;-142.75;100.00;77842.13;5048753;28;20059;-67
2022/02/02 13:13:09;;;;;;;10.63;2.08;;;;;;;-142.75;100.00;77838.19;5049614;28;20215;-68
2022/02/02 13:18:29;;;;;;;12.00;2.35;;;;;;;-142.75;100.00;77836.22;5048201;28;20040;-67
2022/02/02 13:21:04;;;;;;;16.67;3.03;;;;;;;-142.75;100.00;77832.28;5052272;28;20036;-69
2022/02/02 13:26:36;;;;;;;13.25;2.33;;;;;;;-142.75;100.00;77826.38;5052194;28;20047;-68
2022/02/02 13:32:51;;;;;;;9.82;2.33;;;;;;;-142.75;100.00;77838.19;5032183;28;20037;-67
2022/02/02 13:35:05;;;;;;;15.02;2.42;;;;;;;-142.75;100.00;77850.00;5023333;28;20041;-67
2022/02/02 13:45:40;;;;;;;15.52;2.67;;;;;;;-142.75;100.00;77846.06;5051372;28;20041;-67
2022/02/02 13:51:02;;;;;;;13.18;2.67;;;;;;;-142.75;100.00;77830.31;5051443;28;20071;-66
2022/02/02 14:01:08;;;;;;;13.27;2.40;;;;;;;-142.75;100.00;77830.31;5051366;28;20033;-67
2022/02/02 14:25:36;;;;;;;9.00;2.22;;;;;;;-142.75;100.00;77861.81;5031647;28;20041;-67
2022/02/02 14:33:37;;;;;;;7.22;1.63;;;;;;;-142.75;100.00;77940.59;5032259;28;20041;-68
2022/02/02 14:36:05;;;;;;;8.27;1.70;;;;;;;-142.75;100.00;77944.53;5032218;28;20045;-67
2022/02/02 14:38:40;;;;;;;8.32;2.20;;;;;;;-142.75;100.00;77946.50;5031835;28;20025;-68
2022/02/02 14:41:18;;;;;;;9.27;2.30;;;;;;;-142.75;100.00;77932.72;5032031;28;20018;-68
2022/02/02 14:43:56;;;;;;;9.30;2.28;;;;;;;-142.75;100.00;77940.59;5033290;28;20059;-68
2022/02/02 14:46:27;;;;;;;9.98;1.65;;;;;;;-142.75;100.00;77930.75;5031717;28;20053;-68
2022/02/02 14:48:57;;;;;;;8.15;2.17;;;;;;;-142.75;100.00;77928.78;5034050;28;20505;-68
2022/02/02 14:54:05;;;;;;;14.13;1.40;;;;;;;-142.75;100.00;77926.81;5032928;28;20037;-68
2022/02/02 15:23:59;;;;;;;12.07;2.00;;;;;;;-142.75;100.00;77979.97;5031334;28;20036;-69
2022/02/02 15:31:41;;;;;;;11.98;1.92;;;;;;;-142.75;100.00;77983.91;5030819;28;20124;-69
2022/02/02 15:34:11;;;;;;;17.17;2.58;;;;;;;-142.75;100.00;78003.59;5030736;28;20025;-69
2022/02/02 15:39:17;;;;;;;7.82;1.80;;;;;;;-142.75;100.00;78009.50;5032024;28;20030;-69
2022/02/02 16:03:05;;;;;;;10.80;2.10;;;;;;;-142.75;100.00;78015.41;5030658;28;20067;-69
2022/02/02 16:08:07;;;;;;;13.30;2.45;;;;;;;-142.75;100.00;78025.25;5029930;28;20032;-68
2022/02/02 16:10:45;;;;;;;8.32;1.98;;;;;;;-142.75;100.00;78029.19;5030425;28;20022;-69
2022/02/02 16:13:28;;;;;;;12.63;2.42;;;;;;;-142.75;100.00;78041.00;5031133;28;20055;-68
2022/02/02 16:15:58;;;;;;;13.15;3.30;;;;;;;-142.75;100.00;78035.09;5030404;28;20044;-69
2022/02/02 16:32:01;;;;;;;12.60;3.67;;;;;;;-142.75;100.00;78046.91;5030064;28;20681;-68
2022/02/02 16:34:51;;;;;;;11.45;3.25;;;;;;;-142.75;100.00;78041.00;5030054;28;20101;-69
2022/02/02 16:37:24;;;;;;;10.57;2.70;;;;;;;-142.75;100.00;78044.94;5028910;28;20484;-68
2022/02/02 16:39:53;;;;;;;9.02;2.53;;;;;;;-142.75;100.00;78056.78;5028749;28;20021;-68
2022/02/02 16:45:04;;;;;;;9.27;2.35;;;;;;;-142.75;100.00;78058.72;5029255;28;20028;-69
2022/02/02 16:47:29;;;;;;;8.63;2.05;;;;;;;-142.75;100.00;78056.78;5027641;28;20025;-69
2022/02/02 16:49:55;;;;;;;7.07;2.00;;;;;;;-142.75;100.00;78066.63;5028725;28;20029;-69
2022/02/02 16:52:23;;;;;;;7.55;2.20;;;;;;;-142.75;100.00;78074.50;5028847;28;20541;-68
2022/02/02 16:54:49;;;;;;;7.75;2.50;;;;;;;-142.75;100.00;78088.28;5029584;28;20087;-69
2022/02/02 17:30:24;;;;;;;6.65;3.90;;;;;;;-142.75;100.00;78092.22;5032591;28;20514;-69
2022/02/02 17:38:06;;;;;;;8.50;3.53;;;;;;;-142.75;100.00;78084.34;5032118;28;20263;-69
2022/02/02 17:45:52;;;;;;;6.25;2.97;;;;;;;-142.75;100.00;78109.94;5032267;28;20029;-68
2022/02/02 18:00:26;;;;;;;9.05;3.75;;;;;;;-142.75;100.00;78133.56;5031682;28;20037;-69
2022/02/02 18:14:38;;;;;;;12.25;6.28;;;;;;;-142.75;100.00;78115.84;5031464;28;20052;-69
2022/02/02 18:16:27;;;;;;;13.50;8.02;;;;;;;-142.75;100.00;78107.97;5017276;28;20040;-69
2022/02/02 18:18:58;;;;;;;15.27;7.97;;;;;;;-142.75;100.00;78115.84;5031287;28;20047;-69
2022/02/02 18:21:25;;;;;;;16.02;8.15;;;;;;;-142.75;100.00;78106.00;5031421;28;20022;-68
2022/02/02 18:29:08;;;;;;;;;;;;;;;-142.75;100.00;78098.13;5031893;28;20048;-69
2022/02/02 18:31:56;;;;;;;18.13;9.10;;;;;;;-142.75;100.00;78100.09;5031327;28;20366;-69
2022/02/02 18:44:34;;;;;;;22.70;12.55;;;;;;;-142.75;100.00;78090.25;5031572;28;20057;-68
2022/02/02 19:40:35;;;;;;;22.02;12.48;;;;;;;-142.75;100.00;78098.13;5030220;28;20448;-68
2022/02/02 20:02:30;;;;;;;23.85;12.93;;;;;;;-142.75;100.00;78082.38;5029886;28;20094;-68
2022/02/02 20:05:16;;;;;;;21.00;11.60;;;;;;;-142.75;100.00;78078.44;5029314;28;20036;-68
2022/02/02 20:07:52;;;;;;;21.33;8.90;;;;;;;-142.75;100.00;78082.38;5029416;28;20112;-68
2022/02/02 20:12:50;;;;;;;20.52;10.27;;;;;;;-142.75;100.00;78100.09;5029812;28;20025;-67
2022/02/02 20:15:15;;;;;;;19.38;9.02;;;;;;;-142.75;100.00;78107.97;5029876;28;20094;-68
2022/02/02 20:17:42;;;;;;;19.50;9.73;;;;;;;-142.75;100.00;78092.22;5029464;28;20029;-68
2022/02/02 20:20:14;;;;;;;17.42;9.02;;;;;;;-142.75;100.00;78092.22;5027497;28;20033;-67
2022/02/02 20:22:39;;;;;;;19.95;9.63;;;;;;;-142.75;100.00;78082.38;5029413;28;20052;-68
2022/02/02 20:25:05;;;;;;;19.67;8.30;;;;;;;-142.75;100.00;78086.31;5029311;28;20063;-68
2022/02/02 20:27:33;;;;;;;16.92;7.50;;;;;;;-142.75;100.00;78088.28;5029411;28;20029;-68
2022/02/02 20:30:00;;;;;;;15.05;7.63;;;;;;;-142.75;100.00;78086.31;5028545;28;20026;-68
2022/02/02 20:32:26;;;;;;;14.98;7.30;;;;;;;-142.75;100.00;78088.28;5029486;28;20029;-68
2022/02/02 20:34:51;;;;;;;11.90;6.78;;;;;;;-142.75;100.00;78094.19;5028600;28;20025;-68
2022/02/02 20:37:18;;;;;;;18.27;7.85;;;;;;;-142.75;100.00;78090.25;5029682;28;20048;-68
2022/02/02 20:40:01;;;;;;;11.90;6.85;;;;;;;-142.75;100.00;78094.19;5028629;28;20029;-68
2022/02/02 20:45:16;;;;;;;17.08;7.38;;;;;;;-142.75;100.00;78109.94;5029494;28;20034;-68
2022/02/02 21:04:32;;;;;;;19.73;7.80;;;;;;;-142.75;100.00;78119.78;5028365;28;20040;-68
2022/02/02 21:14:41;;;;;;;13.13;7.90;;;;;;;-142.75;100.00;78131.59;5029436;28;20042;-68
2022/02/02 21:17:16;;;;;;;19.80;8.73;;;;;;;-142.75;100.00;78123.72;5029075;28;20033;-68
2022/02/02 21:19:56;;;;;;;17.58;8.65;;;;;;;-142.75;100.00;78119.78;5026877;28;20025;-68
2022/02/02 21:22:23;;;;;;;16.85;8.90;;;;;;;-142.75;100.00;78123.72;5027623;28;20021;-68
2022/02/02 21:25:05;;;;;;;22.30;8.80;;;;;;;-142.75;100.00;78131.59;5027152;28;20394;-68
2022/02/02 21:27:38;;;;;;;16.13;8.88;;;;;;;-142.75;100.00;78125.69;5028742;28;20079;-68
2022/02/02 21:30:05;;;;;;;17.38;9.15;;;;;;;-142.75;100.00;78133.56;5028111;28;20029;-68
2022/02/02 21:32:30;;;;;;;18.88;9.75;;;;;;;-142.75;100.00;78133.56;5028916;28;20032;-68
2022/02/02 21:35:00;;;;;;;19.65;9.30;;;;;;;-142.75;100.00;78137.50;5028449;28;20025;-67
2022/02/02 21:37:26;;;;;;;17.70;9.05;;;;;;;-142.75;100.00;78129.63;5028429;28;20017;-68
2022/02/02 21:40:05;;;;;;;20.45;9.45;;;;;;;-142.75;100.00;78129.63;5029032;28;20020;-68
2022/02/02 21:42:30;;;;;;;16.08;9.32;;;;;;;-142.75;100.00;78125.69;5032282;28;20025;-68
2022/02/02 21:44:56;;;;;;;15.23;8.73;;;;;;;-142.75;100.00;78135.53;5032763;28;20506;-68
2022/02/02 21:47:22;;;;;;;22.83;9.98;;;;;;;-142.75;100.00;78127.66;5032076;28;20064;-68
2022/02/02 21:49:53;;;;;;;18.90;9.65;;;;;;;-142.75;100.00;78135.53;5031822;28;20100;-68
2022/02/02 21:52:18;;;;;;;16.80;9.43;;;;;;;-142.75;100.00;78141.44;5030804;28;20502;-68
2022/02/02 21:54:43;;;;;;;18.67;9.83;;;;;;;-142.75;100.00;78137.50;5032570;28;20076;-68
2022/02/02 21:57:09;;;;;;;19.90;9.67;;;;;;;-142.75;100.00;78145.38;5032300;28;20332;-68
2022/02/02 21:59:34;;;;;;;16.35;9.05;;;;;;;-142.75;100.00;78137.50;5031593;28;20272;-68